createdAt,value
2019-03-15T00:01:38.526Z,80.74
2019-03-15T00:04:08.041Z,80.89
2019-03-15T00:06:36.818Z,81.53
2019-03-15T00:09:08.116Z,81.08
2019-03-15T00:11:36.933Z,81.30
2019-03-15T00:14:05.818Z,81.82
2019-03-15T00:16:34.595Z,82.03
2019-03-15T00:19:03.391Z,82.31
2019-03-15T00:21:32.187Z,81.93
2019-03-15T00:24:00.972Z,82.27
2019-03-15T00:26:29.824Z,82.13
2019-03-15T00:28:58.681Z,81.91
2019-03-15T00:31:27.504Z,82.49
2019-03-15T00:33:56.350Z,81.80
2019-03-15T00:36:25.133Z,82.39
2019-03-15T00:38:54.140Z,82.65
2019-03-15T00:41:22.847Z,82.50
2019-03-15T00:43:51.648Z,82.58
2019-03-15T00:46:20.523Z,82.94
2019-03-15T00:48:49.368Z,82.14
2019-03-15T00:51:18.146Z,82.73
2019-03-15T00:53:46.967Z,82.60
2019-03-15T00:56:15.752Z,82.54
2019-03-15T00:58:44.549Z,82.81
2019-03-15T01:01:13.380Z,83.08
2019-03-15T01:03:42.310Z,83.13
2019-03-15T01:06:11.030Z,82.79
2019-03-15T01:08:39.904Z,82.48
2019-03-15T01:11:08.766Z,83.17
2019-03-15T01:13:37.630Z,82.36
2019-03-15T01:16:06.446Z,83.24
2019-03-15T01:18:35.221Z,82.85
2019-03-15T01:21:03.982Z,82.82
2019-03-15T01:23:32.862Z,83.47
2019-03-15T01:26:01.713Z,83.17
2019-03-15T01:28:30.563Z,83.40
2019-03-15T01:30:59.342Z,83.47
2019-03-15T01:33:28.112Z,83.46
2019-03-15T01:35:56.902Z,84.18
2019-03-15T01:38:25.674Z,83.58
2019-03-15T01:40:54.457Z,83.45
2019-03-15T01:43:23.247Z,83.96
2019-03-15T01:45:52.339Z,83.03
2019-03-15T01:48:21.154Z,83.56
2019-03-15T01:50:50.355Z,83.92
2019-03-15T01:53:18.813Z,83.69
2019-03-15T01:55:47.595Z,83.71
2019-03-15T01:58:16.410Z,84.15
2019-03-15T02:00:45.274Z,83.84
2019-03-15T02:03:14.131Z,84.29
2019-03-15T02:05:42.970Z,84.37
2019-03-15T02:08:11.847Z,84.28
2019-03-15T02:10:40.632Z,84.29
2019-03-15T02:13:09.433Z,84.39
2019-03-15T02:15:39.351Z,84.18
2019-03-15T02:18:08.130Z,84.46
2019-03-15T02:20:36.926Z,84.17
2019-03-15T02:23:06.290Z,84.59
2019-03-15T02:25:35.071Z,84.56
2019-03-15T02:28:04.479Z,84.10
2019-03-15T02:30:33.387Z,84.37
2019-03-15T02:33:02.204Z,84.37
2019-03-15T02:35:31.013Z,84.31
2019-03-15T02:38:00.255Z,84.83
2019-03-15T02:40:28.669Z,84.58
2019-03-15T02:42:57.507Z,84.69
2019-03-15T02:45:26.301Z,84.71
2019-03-15T02:47:55.071Z,84.70
2019-03-15T02:50:23.903Z,84.55
2019-03-15T02:52:52.742Z,84.79
2019-03-15T02:55:21.523Z,84.57
2019-03-15T02:57:50.304Z,84.60
2019-03-15T03:00:19.088Z,84.83
2019-03-15T03:02:47.882Z,84.95
2019-03-15T03:05:16.670Z,84.87
2019-03-15T03:07:45.540Z,84.84
2019-03-15T03:10:14.353Z,85.44
2019-03-15T03:12:43.995Z,84.62
2019-03-15T03:15:12.005Z,85.27
2019-03-15T03:17:40.831Z,84.67
2019-03-15T03:20:09.643Z,84.76
2019-03-15T03:22:38.445Z,84.84
2019-03-15T03:25:07.280Z,84.81
2019-03-15T03:27:36.109Z,85.08
2019-03-15T03:30:05.249Z,85.11
2019-03-15T03:32:34.093Z,85.03
2019-03-15T03:35:02.869Z,85.06
2019-03-15T03:37:31.635Z,85.46
2019-03-15T03:40:01.336Z,84.88
2019-03-15T03:42:29.209Z,85.53
2019-03-15T03:44:58.075Z,85.29
2019-03-15T03:47:26.862Z,85.75
2019-03-15T03:49:55.676Z,85.52
2019-03-15T03:52:24.482Z,85.14
2019-03-15T03:54:53.276Z,85.86
2019-03-15T03:57:22.058Z,85.58
2019-03-15T03:59:50.906Z,85.93
2019-03-15T04:02:19.705Z,85.24
2019-03-15T04:04:48.575Z,85.63
2019-03-15T04:07:17.387Z,85.76
2019-03-15T04:09:46.177Z,86.16
2019-03-15T04:12:14.964Z,85.54
2019-03-15T04:14:43.831Z,85.91
2019-03-15T04:17:12.639Z,85.91
2019-03-15T04:19:41.428Z,85.89
2019-03-15T04:22:10.234Z,85.50
2019-03-15T04:24:39.100Z,85.46
2019-03-15T04:27:07.996Z,85.52
2019-03-15T04:29:37.130Z,85.83
2019-03-15T04:32:05.674Z,85.54
2019-03-15T04:34:34.463Z,85.72
2019-03-15T04:37:03.270Z,85.09
2019-03-15T04:39:32.107Z,85.22
2019-03-15T04:42:00.928Z,85.86
2019-03-15T04:44:29.707Z,85.84
2019-03-15T04:46:58.528Z,85.07
2019-03-15T04:49:27.306Z,85.73
2019-03-15T04:51:56.228Z,85.54
2019-03-15T04:54:24.998Z,85.40
2019-03-15T04:56:53.792Z,85.92
2019-03-15T04:59:23.975Z,85.79
2019-03-15T05:01:51.426Z,85.61
2019-03-15T05:04:20.209Z,86.23
2019-03-15T05:06:49.056Z,85.62
2019-03-15T05:09:17.839Z,85.53
2019-03-15T05:11:46.662Z,86.00
2019-03-15T05:14:15.443Z,85.89
2019-03-15T05:16:44.225Z,85.64
2019-03-15T05:19:12.996Z,85.99
2019-03-15T05:21:41.792Z,85.66
2019-03-15T05:24:10.639Z,86.25
2019-03-15T05:26:39.962Z,85.59
2019-03-15T05:29:08.790Z,85.78
2019-03-15T05:31:37.592Z,85.63
2019-03-15T05:34:06.354Z,85.96
2019-03-15T05:36:35.144Z,86.14
2019-03-15T05:39:04.779Z,85.69
2019-03-15T05:41:33.547Z,85.89
2019-03-15T05:44:02.341Z,85.77
2019-03-15T05:46:31.129Z,85.76
2019-03-15T05:48:59.912Z,85.91
2019-03-15T05:51:28.739Z,85.99
2019-03-15T05:53:57.635Z,86.01
2019-03-15T05:56:26.440Z,86.23
2019-03-15T05:58:56.232Z,86.20
2019-03-15T06:01:25.062Z,86.55
2019-03-15T06:03:53.847Z,86.73
2019-03-15T06:06:22.624Z,87.00
2019-03-15T06:08:51.417Z,87.18
2019-03-15T06:11:20.314Z,86.70
2019-03-15T06:13:50.190Z,86.98
2019-03-15T06:16:19.005Z,87.15
2019-03-15T06:18:47.784Z,87.05
2019-03-15T06:21:16.554Z,87.47
2019-03-15T06:23:45.362Z,87.25
2019-03-15T06:26:14.294Z,87.60
2019-03-15T06:28:43.115Z,87.14
2019-03-15T06:31:11.960Z,87.52
2019-03-15T06:33:40.789Z,87.57
2019-03-15T06:36:09.592Z,88.03
2019-03-15T06:38:38.362Z,87.52
2019-03-15T06:41:07.209Z,88.17
2019-03-15T06:43:36.039Z,88.19
2019-03-15T06:46:04.854Z,88.21
2019-03-15T06:48:33.660Z,88.16
2019-03-15T06:51:02.448Z,88.21
2019-03-15T06:53:31.291Z,88.39
2019-03-15T06:56:00.083Z,88.64
2019-03-15T06:58:28.854Z,88.47
2019-03-15T07:00:57.699Z,88.30
2019-03-15T07:03:27.254Z,88.71
2019-03-15T07:05:56.568Z,89.00
2019-03-15T07:08:25.417Z,88.96
2019-03-15T07:10:54.205Z,88.89
2019-03-15T07:13:23.036Z,88.59
2019-03-15T07:15:51.837Z,89.08
2019-03-15T07:18:20.661Z,89.02
2019-03-15T07:20:49.467Z,88.93
2019-03-15T07:23:18.257Z,88.97
2019-03-15T07:25:47.043Z,88.89
2019-03-15T07:28:15.921Z,89.12
2019-03-15T07:30:44.722Z,89.13
2019-03-15T07:33:13.595Z,89.30
2019-03-15T07:35:42.401Z,89.62
2019-03-15T07:38:11.286Z,89.27
2019-03-15T07:40:40.121Z,89.26
2019-03-15T07:43:09.046Z,89.27
2019-03-15T07:45:37.828Z,89.47
2019-03-15T07:48:06.602Z,89.30
2019-03-15T07:50:35.428Z,89.50
2019-03-15T07:53:04.211Z,89.23
2019-03-15T07:55:33.090Z,89.78
2019-03-15T07:58:01.911Z,89.68
2019-03-15T08:00:30.743Z,89.82
2019-03-15T08:02:59.619Z,89.68
2019-03-15T08:05:28.377Z,89.74
2019-03-15T08:07:57.167Z,90.02
2019-03-15T08:10:25.955Z,90.01
2019-03-15T08:12:54.805Z,90.29
2019-03-15T08:15:23.685Z,90.11
2019-03-15T08:17:52.468Z,90.40
2019-03-15T08:20:21.293Z,90.41
2019-03-15T08:22:50.431Z,89.90
2019-03-15T08:25:19.210Z,90.37
2019-03-15T08:27:48.172Z,90.60
2019-03-15T08:30:17.952Z,90.75
2019-03-15T08:32:46.771Z,90.80
2019-03-15T08:35:15.615Z,90.63
2019-03-15T08:37:44.407Z,90.83
2019-03-15T08:40:13.215Z,91.07
2019-03-15T08:42:41.974Z,90.83
2019-03-15T08:45:12.411Z,90.99
2019-03-15T08:47:41.241Z,90.83
2019-03-15T08:50:14.809Z,91.09
2019-03-15T08:52:42.162Z,91.20
2019-03-15T08:55:09.513Z,91.44
2019-03-15T08:57:38.317Z,91.72
2019-03-15T09:00:08.263Z,91.91
2019-03-15T09:02:37.069Z,91.99
2019-03-15T09:05:06.013Z,92.41
2019-03-15T09:07:34.923Z,92.66
2019-03-15T09:10:04.324Z,92.81
2019-03-15T09:12:33.110Z,93.31
2019-03-15T09:15:01.954Z,93.22
2019-03-15T09:17:30.803Z,93.33
2019-03-15T09:19:59.570Z,93.86
2019-03-15T09:22:28.367Z,93.66
2019-03-15T09:24:57.212Z,93.72
2019-03-15T09:27:26.023Z,94.38
2019-03-15T09:29:54.875Z,94.16
2019-03-15T09:32:23.699Z,94.86
2019-03-15T09:34:55.565Z,94.28
2019-03-15T09:37:21.279Z,95.00
2019-03-15T09:39:50.068Z,94.23
2019-03-15T09:42:18.866Z,94.15
2019-03-15T09:44:47.671Z,93.65
2019-03-15T09:47:16.455Z,93.59
2019-03-15T09:49:45.248Z,93.71
2019-03-15T09:52:14.126Z,93.88
2019-03-15T09:54:43.000Z,93.56
2019-03-15T09:57:11.783Z,93.70
2019-03-15T09:59:40.627Z,92.96
2019-03-15T10:02:09.460Z,92.73
2019-03-15T10:04:38.353Z,92.50
2019-03-15T10:07:07.160Z,92.46
2019-03-15T10:09:45.743Z,92.23
2019-03-15T10:12:04.731Z,91.89
2019-03-15T10:14:33.563Z,91.44
2019-03-15T10:17:02.404Z,90.77
2019-03-15T10:19:31.248Z,90.96
2019-03-15T10:22:00.039Z,90.92
2019-03-15T10:24:28.876Z,90.41
2019-03-15T10:26:57.683Z,90.13
2019-03-15T10:29:26.515Z,89.02
2019-03-15T10:31:55.298Z,88.84
2019-03-15T10:34:24.096Z,87.60
2019-03-15T10:36:53.013Z,88.05
2019-03-15T10:39:21.809Z,87.53
2019-03-15T10:41:50.626Z,86.54
2019-03-15T10:44:19.476Z,86.38
2019-03-15T10:46:48.271Z,85.45
2019-03-15T10:49:17.062Z,85.43
2019-03-15T10:51:45.982Z,85.05
2019-03-15T10:54:14.769Z,84.25
2019-03-15T10:56:43.795Z,84.72
2019-03-15T10:59:12.555Z,84.68
2019-03-15T11:01:41.351Z,85.14
2019-03-15T11:04:10.136Z,85.10
2019-03-15T11:06:38.915Z,86.08
2019-03-15T11:09:07.847Z,86.12
2019-03-15T11:11:36.663Z,86.34
2019-03-15T11:14:05.451Z,86.51
2019-03-15T11:16:34.223Z,86.44
2019-03-15T11:19:03.032Z,86.02
2019-03-15T11:21:31.926Z,86.08
2019-03-15T11:24:00.726Z,85.50
2019-03-15T11:26:29.515Z,84.99
2019-03-15T11:28:58.348Z,84.89
2019-03-15T11:31:27.150Z,83.95
2019-03-15T11:33:55.974Z,83.72
2019-03-15T11:36:24.819Z,83.27
2019-03-15T11:38:53.667Z,83.41
2019-03-15T11:41:22.523Z,83.33
2019-03-15T11:43:51.394Z,83.44
2019-03-15T11:46:20.196Z,83.72
2019-03-15T11:48:49.060Z,84.00
2019-03-15T11:51:17.941Z,83.78
2019-03-15T11:53:46.829Z,84.21
2019-03-15T11:56:26.421Z,84.25
2019-03-15T11:58:44.466Z,83.67
2019-03-15T12:01:13.256Z,83.80
2019-03-15T12:03:52.434Z,83.37
2019-03-15T12:06:11.547Z,82.87
2019-03-15T12:08:40.471Z,83.27
2019-03-15T12:11:09.315Z,83.64
2019-03-15T12:13:38.102Z,83.49
2019-03-15T12:16:06.940Z,83.37
2019-03-15T12:18:35.714Z,83.26
2019-03-15T12:21:04.524Z,83.53
2019-03-15T12:23:33.340Z,83.71
2019-03-15T12:26:03.743Z,83.43
2019-03-15T12:28:32.522Z,83.00
2019-03-15T12:31:01.320Z,83.09
2019-03-15T12:33:42.170Z,82.73
2019-03-15T12:36:11.549Z,82.69
2019-03-15T12:38:40.380Z,82.60
2019-03-15T12:41:09.882Z,82.71
2019-03-15T12:43:38.696Z,82.46
2019-03-15T12:46:07.477Z,82.17
2019-03-15T12:48:41.476Z,82.31
2019-03-15T12:51:10.263Z,82.18
2019-03-15T12:53:40.023Z,81.73
2019-03-15T12:56:11.143Z,82.09
2019-03-15T12:58:39.041Z,81.86
2019-03-15T13:01:08.182Z,82.08
2019-03-15T13:03:36.963Z,82.28
2019-03-15T13:06:05.812Z,82.96
2019-03-15T13:08:34.573Z,84.14
2019-03-15T13:11:03.366Z,85.21
2019-03-15T13:13:32.154Z,85.41
2019-03-15T13:16:01.115Z,85.95
2019-03-15T13:18:30.006Z,86.33
2019-03-15T13:21:00.416Z,86.54
2019-03-15T13:23:29.354Z,86.71
2019-03-15T13:25:58.255Z,86.81
2019-03-15T13:28:27.047Z,86.92
2019-03-15T13:30:56.490Z,86.83
2019-03-15T13:33:25.290Z,86.90
2019-03-15T13:35:54.090Z,86.92
2019-03-15T13:38:22.894Z,86.67
2019-03-15T13:40:51.707Z,86.50
2019-03-15T13:43:20.495Z,86.54
2019-03-15T13:45:49.312Z,86.40
2019-03-15T13:48:18.798Z,86.61
2019-03-15T13:50:47.641Z,86.58
2019-03-15T13:53:17.067Z,86.33
2019-03-15T13:55:45.883Z,86.81
2019-03-15T13:58:14.798Z,86.94
2019-03-15T14:00:43.570Z,87.06
2019-03-15T14:03:12.392Z,87.01
2019-03-15T14:05:41.210Z,86.83
2019-03-15T14:08:12.064Z,87.38
2019-03-15T14:10:49.162Z,87.87
2019-03-15T14:13:12.114Z,87.66
2019-03-15T14:15:40.968Z,87.97
2019-03-15T14:18:09.839Z,87.49
2019-03-15T14:20:38.648Z,87.39
2019-03-15T14:23:07.447Z,87.62
2019-03-15T14:25:36.233Z,87.74
2019-03-15T14:28:05.031Z,87.90
2019-03-15T14:30:33.881Z,88.05
2019-03-15T14:33:02.707Z,87.85
2019-03-15T14:35:31.542Z,88.63
2019-03-15T14:38:00.477Z,88.50
2019-03-15T14:40:29.160Z,88.80
2019-03-15T14:42:58.224Z,88.78
2019-03-15T14:45:26.783Z,89.54
2019-03-15T14:47:55.572Z,89.36
2019-03-15T14:50:24.365Z,89.41
2019-03-15T14:52:53.892Z,89.17
2019-03-15T14:55:22.783Z,89.26
2019-03-15T14:57:53.306Z,89.05
2019-03-15T15:00:20.431Z,89.15
2019-03-15T15:02:49.251Z,88.92
2019-03-15T15:05:18.039Z,88.87
2019-03-15T15:07:46.976Z,88.86
2019-03-15T15:10:15.932Z,88.95
2019-03-15T15:12:44.756Z,88.45
2019-03-15T15:15:13.538Z,88.45
2019-03-15T15:17:42.332Z,88.06
2019-03-15T15:20:11.144Z,87.84
2019-03-15T15:22:39.992Z,87.86
2019-03-15T15:25:09.029Z,88.07
2019-03-15T15:27:37.840Z,88.10
2019-03-15T15:30:06.967Z,88.19
2019-03-15T15:32:35.857Z,88.04
2019-03-15T15:35:05.295Z,88.42
2019-03-15T15:37:34.087Z,88.29
2019-03-15T15:40:02.961Z,88.41
2019-03-15T15:42:31.764Z,88.63
2019-03-15T15:45:00.613Z,87.45
2019-03-15T15:47:29.462Z,87.88
2019-03-15T15:49:58.297Z,87.31
2019-03-15T15:52:27.148Z,86.11
2019-03-15T15:54:55.951Z,86.51
2019-03-15T15:57:24.730Z,86.16
2019-03-15T15:59:53.596Z,85.92
2019-03-15T16:02:25.162Z,85.25
2019-03-15T16:04:53.954Z,85.35
2019-03-15T16:07:22.791Z,85.14
2019-03-15T16:09:51.668Z,84.29
2019-03-15T16:12:20.467Z,83.86
2019-03-15T16:14:49.351Z,83.38
2019-03-15T16:17:18.176Z,82.87
2019-03-15T16:19:47.068Z,82.80
2019-03-15T16:22:15.875Z,82.88
2019-03-15T16:24:44.794Z,83.03
2019-03-15T16:27:13.599Z,83.15
2019-03-15T16:29:42.410Z,83.20
2019-03-15T16:32:11.239Z,83.07
2019-03-15T16:34:40.034Z,83.46
2019-03-15T16:37:08.885Z,83.15
2019-03-15T16:39:37.690Z,82.71
2019-03-15T16:42:06.560Z,82.37
2019-03-15T16:44:35.367Z,82.42
2019-03-15T16:47:04.168Z,82.53
2019-03-15T16:49:33.917Z,81.67
2019-03-15T16:52:02.664Z,81.72
2019-03-15T16:54:31.488Z,81.57
2019-03-15T16:57:00.315Z,82.21
2019-03-15T16:59:29.108Z,81.62
2019-03-15T17:01:58.012Z,81.98
2019-03-15T17:04:26.773Z,82.07
2019-03-15T17:06:55.638Z,81.11
2019-03-15T17:09:24.484Z,81.78
2019-03-15T17:11:53.306Z,81.93
2019-03-15T17:14:25.839Z,81.96
2019-03-15T17:16:50.959Z,82.33
2019-03-15T17:19:19.849Z,81.50
2019-03-15T17:21:48.849Z,81.54
2019-03-15T17:24:17.718Z,81.83
2019-03-15T17:26:46.530Z,81.32
2019-03-15T17:29:15.379Z,81.99
2019-03-15T17:31:44.306Z,81.88
2019-03-15T17:34:13.087Z,82.01
2019-03-15T17:36:42.016Z,81.93
2019-03-15T17:39:10.781Z,82.07
2019-03-15T17:41:39.600Z,82.58
2019-03-15T17:44:08.379Z,82.50
2019-03-15T17:46:37.322Z,82.67
2019-03-15T17:49:06.793Z,82.92
2019-03-15T17:51:36.020Z,82.61
2019-03-15T17:54:05.223Z,82.84
2019-03-15T17:56:34.023Z,82.70
2019-03-15T17:59:12.256Z,82.52
2019-03-15T18:01:31.683Z,82.24
2019-03-15T18:04:00.549Z,82.29
2019-03-15T18:06:29.399Z,81.90
2019-03-15T18:08:59.027Z,81.83
2019-03-15T18:11:27.815Z,81.92
2019-03-15T18:13:56.623Z,81.85
2019-03-15T18:16:25.466Z,81.64
2019-03-15T18:18:54.291Z,81.95
2019-03-15T18:21:23.538Z,82.10
2019-03-15T18:23:53.215Z,81.80
2019-03-15T18:26:22.150Z,81.17
2019-03-15T18:28:51.098Z,81.19
2019-03-15T18:31:19.986Z,81.04
2019-03-15T18:33:48.883Z,80.94
2019-03-15T18:36:17.729Z,80.79
2019-03-15T18:38:46.613Z,81.02
2019-03-15T18:41:15.441Z,80.71
2019-03-15T18:43:44.327Z,80.92
2019-03-15T18:46:13.195Z,80.55
2019-03-15T18:48:42.086Z,80.04
2019-03-15T18:51:10.893Z,80.33
2019-03-15T18:53:39.685Z,80.77
2019-03-15T18:56:08.490Z,80.01
2019-03-15T18:58:37.313Z,80.33
2019-03-15T19:01:06.136Z,80.35
2019-03-15T19:03:35.062Z,80.32
2019-03-15T19:06:03.934Z,80.37
2019-03-15T19:08:32.723Z,80.48
2019-03-15T19:11:01.602Z,80.39
2019-03-15T19:13:30.344Z,79.55
2019-03-15T19:15:59.159Z,79.82
2019-03-15T19:18:27.944Z,79.90
2019-03-15T19:20:56.744Z,80.04
2019-03-15T19:23:26.151Z,79.61
2019-03-15T19:25:54.895Z,79.69
2019-03-15T19:28:23.682Z,79.56
2019-03-15T19:30:52.554Z,79.16
2019-03-15T19:33:21.338Z,78.83
2019-03-15T19:35:50.156Z,79.27
2019-03-15T19:38:19.028Z,79.45
2019-03-15T19:40:47.827Z,79.12
2019-03-15T19:43:16.823Z,79.17
2019-03-15T19:45:45.654Z,79.54
2019-03-15T19:48:15.523Z,79.72
2019-03-15T19:50:44.377Z,79.24
2019-03-15T19:53:13.148Z,79.30
2019-03-15T19:55:41.967Z,79.17
2019-03-15T19:58:10.766Z,79.33
2019-03-15T20:00:39.558Z,79.18
2019-03-15T20:03:08.426Z,79.65
2019-03-15T20:05:37.474Z,79.49
2019-03-15T20:08:06.264Z,79.63
2019-03-15T20:10:35.066Z,79.81
2019-03-15T20:13:03.869Z,79.92
2019-03-15T20:15:32.680Z,80.19
2019-03-15T20:18:01.555Z,79.80
2019-03-15T20:20:30.351Z,79.84
2019-03-15T20:22:59.139Z,80.15
2019-03-15T20:25:27.961Z,80.01
2019-03-15T20:27:56.826Z,79.99
2019-03-15T20:30:27.198Z,80.12
2019-03-15T20:32:55.722Z,80.25
2019-03-15T20:35:24.606Z,80.74
2019-03-15T20:37:56.218Z,80.89
2019-03-15T20:40:27.614Z,80.91
2019-03-15T20:42:56.398Z,81.40
2019-03-15T20:45:25.188Z,81.59
2019-03-15T20:47:53.988Z,81.54
2019-03-15T20:50:22.803Z,81.41
2019-03-15T20:52:51.591Z,81.31
2019-03-15T20:55:20.391Z,81.57
2019-03-15T20:57:49.182Z,81.95
2019-03-15T21:00:19.366Z,81.82
2019-03-15T21:02:48.287Z,82.01
2019-03-15T21:05:17.109Z,81.96
2019-03-15T21:07:45.885Z,82.00
2019-03-15T21:10:14.770Z,82.26
2019-03-15T21:12:45.820Z,82.15
2019-03-15T21:15:16.757Z,82.39
2019-03-15T21:17:45.465Z,82.04
2019-03-15T21:20:14.295Z,82.33
2019-03-15T21:22:43.070Z,82.62
2019-03-15T21:25:12.973Z,82.13
2019-03-15T21:27:52.930Z,82.67
2019-03-15T21:30:13.082Z,82.58
2019-03-15T21:32:41.805Z,82.26
2019-03-15T21:35:10.644Z,82.29
2019-03-15T21:37:39.563Z,82.79
2019-03-15T21:40:09.186Z,82.79
2019-03-15T21:42:38.167Z,82.64
2019-03-15T21:45:07.430Z,82.71
2019-03-15T21:47:36.232Z,83.04
2019-03-15T21:50:06.504Z,83.13
2019-03-15T21:52:37.087Z,83.05
2019-03-15T21:55:05.911Z,83.67
2019-03-15T21:57:35.723Z,83.22
2019-03-15T22:00:06.012Z,83.21
2019-03-15T22:02:36.657Z,83.14
2019-03-15T22:05:07.589Z,83.06
2019-03-15T22:07:36.500Z,83.04
2019-03-15T22:10:07.193Z,83.24
2019-03-15T22:12:36.000Z,83.47
2019-03-15T22:15:07.260Z,83.35
2019-03-15T22:17:36.714Z,83.49
2019-03-15T22:20:06.087Z,83.35
2019-03-15T22:22:34.896Z,83.75
2019-03-15T22:25:03.722Z,83.13
2019-03-15T22:27:32.562Z,83.26
2019-03-15T22:30:01.367Z,83.34
2019-03-15T22:32:30.181Z,83.48
2019-03-15T22:34:58.970Z,83.15
2019-03-15T22:37:27.758Z,83.41
2019-03-15T22:39:56.714Z,83.15
2019-03-15T22:42:25.556Z,83.58
2019-03-15T22:44:54.342Z,83.50
2019-03-15T22:47:23.802Z,83.26
2019-03-15T22:49:52.614Z,83.20
2019-03-15T22:52:21.450Z,83.34
2019-03-15T22:54:50.299Z,83.69
2019-03-15T22:57:19.083Z,83.47
2019-03-15T22:59:47.916Z,83.21
2019-03-15T23:02:16.787Z,83.75
2019-03-15T23:04:45.644Z,83.62
2019-03-15T23:07:14.482Z,83.12
2019-03-15T23:09:43.318Z,83.16
2019-03-15T23:12:12.184Z,83.39
2019-03-15T23:14:41.010Z,83.32
2019-03-15T23:17:09.813Z,83.26
2019-03-15T23:19:38.603Z,83.32
2019-03-15T23:22:07.492Z,82.57
2019-03-15T23:24:36.288Z,82.95
2019-03-15T23:27:05.092Z,82.74
2019-03-15T23:29:33.883Z,82.54
2019-03-15T23:32:02.741Z,82.49
2019-03-15T23:34:31.566Z,82.45
2019-03-15T23:37:00.427Z,82.66
2019-03-15T23:39:29.728Z,82.46
2019-03-15T23:41:58.516Z,82.04
2019-03-15T23:44:27.355Z,81.67
2019-03-15T23:46:56.127Z,82.10
2019-03-15T23:49:24.929Z,81.69
2019-03-15T23:51:53.695Z,81.25
2019-03-15T23:54:22.475Z,81.44
2019-03-15T23:56:51.311Z,81.14
2019-03-15T23:59:20.109Z,80.61
